sensor_id;sensor_type;location;lat;lon;timestamp;pressure;altitude;pressure_sealevel;temperature;humidity
69239;BME280;56349;51.816;-0.026;2023-07-29T00:00:51;99946.37;;;26.98;35.24
69239;BME280;56349;51.816;-0.026;2023-07-29T00:03:17;99949.08;;;26.70;35.25
69239;BME280;56349;51.816;-0.026;2023-07-29T00:05:43;99947.11;;;27.17;35.27
69239;BME280;56349;51.816;-0.026;2023-07-29T00:08:08;99942.59;;;27.16;35.28
69239;BME280;56349;51.816;-0.026;2023-07-29T00:10:36;99941.60;;;26.93;35.30
69239;BME280;56349;51.816;-0.026;2023-07-29T00:13:00;99941.92;;;26.65;35.31
69239;BME280;56349;51.816;-0.026;2023-07-29T00:15:26;99941.31;;;27.09;35.36
69239;BME280;56349;51.816;-0.026;2023-07-29T00:17:52;99939.90;;;27.08;35.38
69239;BME280;56349;51.816;-0.026;2023-07-29T00:20:18;99940.96;;;27.05;35.41
69239;BME280;56349;51.816;-0.026;2023-07-29T00:22:43;99944.92;;;27.03;35.42
69239;BME280;56349;51.816;-0.026;2023-07-29T00:25:09;99938.16;;;27.02;35.44
69239;BME280;56349;51.816;-0.026;2023-07-29T00:27:35;99940.78;;;26.99;35.47
69239;BME280;56349;51.816;-0.026;2023-07-29T00:30:01;99939.03;;;26.97;35.49
69239;BME280;56349;51.816;-0.026;2023-07-29T00:32:29;99938.88;;;26.93;35.54
69239;BME280;56349;51.816;-0.026;2023-07-29T00:34:53;99935.93;;;26.89;35.60
69239;BME280;56349;51.816;-0.026;2023-07-29T00:37:19;99932.46;;;27.10;35.60
69239;BME280;56349;51.816;-0.026;2023-07-29T00:39:45;99932.84;;;26.88;35.62
69239;BME280;56349;51.816;-0.026;2023-07-29T00:42:11;99932.50;;;26.87;35.62
69239;BME280;56349;51.816;-0.026;2023-07-29T00:44:36;99934.38;;;26.64;35.63
69239;BME280;56349;51.816;-0.026;2023-07-29T00:47:03;99934.81;;;26.84;35.64
69239;BME280;56349;51.816;-0.026;2023-07-29T00:49:28;99926.50;;;26.62;35.62
69239;BME280;56349;51.816;-0.026;2023-07-29T00:51:53;99925.46;;;26.83;35.66
69239;BME280;56349;51.816;-0.026;2023-07-29T00:54:19;99929.96;;;26.82;35.67
69239;BME280;56349;51.816;-0.026;2023-07-29T00:56:45;99930.09;;;26.81;35.67
69239;BME280;56349;51.816;-0.026;2023-07-29T00:59:10;99930.94;;;26.60;35.65
69239;BME280;56349;51.816;-0.026;2023-07-29T01:01:35;99927.74;;;26.80;35.67
69239;BME280;56349;51.816;-0.026;2023-07-29T01:04:00;99929.20;;;26.79;35.69
69239;BME280;56349;51.816;-0.026;2023-07-29T01:06:34;99928.79;;;26.79;35.68
69239;BME280;56349;51.816;-0.026;2023-07-29T01:08:59;99925.00;;;26.56;35.70
69239;BME280;56349;51.816;-0.026;2023-07-29T01:11:30;99923.17;;;26.78;35.68
69239;BME280;56349;51.816;-0.026;2023-07-29T01:13:47;99920.48;;;26.79;35.66
69239;BME280;56349;51.816;-0.026;2023-07-29T01:16:13;99921.66;;;26.81;35.64
69239;BME280;56349;51.816;-0.026;2023-07-29T01:18:36;99923.43;;;26.80;35.64
69239;BME280;56349;51.816;-0.026;2023-07-29T01:21:03;99924.53;;;26.79;35.64
69239;BME280;56349;51.816;-0.026;2023-07-29T01:23:26;99924.73;;;26.76;35.68
69239;BME280;56349;51.816;-0.026;2023-07-29T01:25:51;99925.49;;;26.73;35.70
69239;BME280;56349;51.816;-0.026;2023-07-29T01:28:17;99923.14;;;26.72;35.70
69239;BME280;56349;51.816;-0.026;2023-07-29T01:30:43;99927.10;;;26.69;35.74
69239;BME280;56349;51.816;-0.026;2023-07-29T01:33:11;99931.31;;;26.68;35.75
69239;BME280;56349;51.816;-0.026;2023-07-29T01:35:36;99936.74;;;26.65;35.78
69239;BME280;56349;51.816;-0.026;2023-07-29T01:38:04;99935.54;;;26.65;35.77
69239;BME280;56349;51.816;-0.026;2023-07-29T01:40:27;99933.46;;;26.67;35.75
69239;BME280;56349;51.816;-0.026;2023-07-29T01:42:50;99923.67;;;26.66;35.71
69239;BME280;56349;51.816;-0.026;2023-07-29T01:45:16;99917.73;;;26.65;35.74
69239;BME280;56349;51.816;-0.026;2023-07-29T01:47:42;99927.52;;;26.63;35.75
69239;BME280;56349;51.816;-0.026;2023-07-29T01:50:09;99925.36;;;26.62;35.76
69239;BME280;56349;51.816;-0.026;2023-07-29T01:52:34;99921.14;;;26.38;35.77
69239;BME280;56349;51.816;-0.026;2023-07-29T01:55:00;99923.87;;;26.58;35.79
69239;BME280;56349;51.816;-0.026;2023-07-29T01:57:26;99920.65;;;26.56;35.80
69239;BME280;56349;51.816;-0.026;2023-07-29T01:59:51;99922.79;;;26.56;35.79
69239;BME280;56349;51.816;-0.026;2023-07-29T02:02:17;99925.27;;;26.55;35.79
69239;BME280;56349;51.816;-0.026;2023-07-29T02:04:43;99926.71;;;26.54;35.78
69239;BME280;56349;51.816;-0.026;2023-07-29T02:07:09;99926.92;;;26.52;35.79
69239;BME280;56349;51.816;-0.026;2023-07-29T02:09:35;99927.98;;;26.74;35.78
69239;BME280;56349;51.816;-0.026;2023-07-29T02:12:01;99930.71;;;26.73;35.77
69239;BME280;56349;51.816;-0.026;2023-07-29T02:14:27;99931.11;;;26.49;35.74
69239;BME280;56349;51.816;-0.026;2023-07-29T02:16:53;99929.71;;;26.45;35.75
69239;BME280;56349;51.816;-0.026;2023-07-29T02:19:19;99933.11;;;26.43;35.73
69239;BME280;56349;51.816;-0.026;2023-07-29T02:21:45;99928.30;;;26.43;35.69
69239;BME280;56349;51.816;-0.026;2023-07-29T02:24:11;99926.98;;;26.42;35.65
69239;BME280;56349;51.816;-0.026;2023-07-29T02:26:37;99923.13;;;26.40;35.68
69239;BME280;56349;51.816;-0.026;2023-07-29T02:29:03;99919.86;;;26.40;35.66
69239;BME280;56349;51.816;-0.026;2023-07-29T02:31:29;99916.19;;;26.38;35.67
69239;BME280;56349;51.816;-0.026;2023-07-29T02:33:55;99917.14;;;26.36;35.67
69239;BME280;56349;51.816;-0.026;2023-07-29T02:36:21;99916.02;;;26.35;35.67
69239;BME280;56349;51.816;-0.026;2023-07-29T02:38:47;99920.48;;;26.36;35.64
69239;BME280;56349;51.816;-0.026;2023-07-29T02:41:13;99914.60;;;26.33;35.69
69239;BME280;56349;51.816;-0.026;2023-07-29T02:43:39;99911.23;;;26.56;35.67
69239;BME280;56349;51.816;-0.026;2023-07-29T02:46:04;99916.52;;;26.30;35.67
69239;BME280;56349;51.816;-0.026;2023-07-29T02:48:30;99913.43;;;26.30;35.67
69239;BME280;56349;51.816;-0.026;2023-07-29T02:50:55;99912.20;;;26.52;35.66
69239;BME280;56349;51.816;-0.026;2023-07-29T02:53:22;99904.96;;;26.29;35.65
69239;BME280;56349;51.816;-0.026;2023-07-29T02:55:47;99901.25;;;26.27;35.65
69239;BME280;56349;51.816;-0.026;2023-07-29T02:58:13;99906.90;;;26.49;35.65
69239;BME280;56349;51.816;-0.026;2023-07-29T03:00:38;99907.86;;;26.49;35.64
69239;BME280;56349;51.816;-0.026;2023-07-29T03:03:03;99905.94;;;26.27;35.63
69239;BME280;56349;51.816;-0.026;2023-07-29T03:05:29;99911.82;;;26.27;35.59
69239;BME280;56349;51.816;-0.026;2023-07-29T03:07:55;99906.13;;;26.27;35.61
69239;BME280;56349;51.816;-0.026;2023-07-29T03:10:21;99908.92;;;26.50;35.59
69239;BME280;56349;51.816;-0.026;2023-07-29T03:12:47;99907.79;;;26.05;35.58
69239;BME280;56349;51.816;-0.026;2023-07-29T03:15:14;99911.70;;;26.47;35.58
69239;BME280;56349;51.816;-0.026;2023-07-29T03:17:38;99913.57;;;26.24;35.60
69239;BME280;56349;51.816;-0.026;2023-07-29T03:20:04;99911.49;;;26.01;35.60
69239;BME280;56349;51.816;-0.026;2023-07-29T03:22:29;99910.96;;;26.21;35.64
69239;BME280;56349;51.816;-0.026;2023-07-29T03:24:55;99911.59;;;26.41;35.64
69239;BME280;56349;51.816;-0.026;2023-07-29T03:27:22;99908.14;;;26.18;35.64
69239;BME280;56349;51.816;-0.026;2023-07-29T03:29:47;99906.29;;;26.17;35.68
69239;BME280;56349;51.816;-0.026;2023-07-29T03:32:13;99916.13;;;26.39;35.76
69239;BME280;56349;51.816;-0.026;2023-07-29T03:34:39;99919.64;;;26.21;35.83
69239;BME280;56349;51.816;-0.026;2023-07-29T03:37:04;99912.15;;;26.28;35.94
69239;BME280;56349;51.816;-0.026;2023-07-29T03:39:29;99916.02;;;26.42;35.92
69239;BME280;56349;51.816;-0.026;2023-07-29T03:42:02;99914.17;;;26.59;35.88
69239;BME280;56349;51.816;-0.026;2023-07-29T03:44:21;99912.80;;;26.80;35.74
69239;BME280;56349;51.816;-0.026;2023-07-29T03:46:47;99912.57;;;26.50;35.55
69239;BME280;56349;51.816;-0.026;2023-07-29T03:49:13;99910.86;;;26.94;35.33
69239;BME280;56349;51.816;-0.026;2023-07-29T03:51:39;99905.42;;;27.29;35.13
69239;BME280;56349;51.816;-0.026;2023-07-29T03:54:06;99903.07;;;26.86;34.96
69239;BME280;56349;51.816;-0.026;2023-07-29T03:56:31;99901.33;;;26.89;34.85
69239;BME280;56349;51.816;-0.026;2023-07-29T03:59:02;99905.39;;;26.92;34.75
69239;BME280;56349;51.816;-0.026;2023-07-29T04:01:22;99907.08;;;26.91;34.67
69239;BME280;56349;51.816;-0.026;2023-07-29T04:03:48;99911.20;;;27.36;34.64
69239;BME280;56349;51.816;-0.026;2023-07-29T04:06:14;99910.80;;;26.84;34.63
69239;BME280;56349;51.816;-0.026;2023-07-29T04:08:39;99911.95;;;27.07;34.59
69239;BME280;56349;51.816;-0.026;2023-07-29T04:11:05;99916.48;;;27.25;34.56
69239;BME280;56349;51.816;-0.026;2023-07-29T04:13:31;99920.08;;;26.81;34.48
69239;BME280;56349;51.816;-0.026;2023-07-29T04:15:57;99920.27;;;27.08;34.39
69239;BME280;56349;51.816;-0.026;2023-07-29T04:18:23;99924.72;;;27.04;34.42
69239;BME280;56349;51.816;-0.026;2023-07-29T04:20:48;99927.98;;;26.64;34.50
69239;BME280;56349;51.816;-0.026;2023-07-29T04:23:14;99926.02;;;27.00;34.62
69239;BME280;56349;51.816;-0.026;2023-07-29T04:25:40;99925.00;;;26.91;34.65
69239;BME280;56349;51.816;-0.026;2023-07-29T04:28:06;99931.24;;;26.61;34.77
69239;BME280;56349;51.816;-0.026;2023-07-29T04:30:32;99932.93;;;26.77;34.79
69239;BME280;56349;51.816;-0.026;2023-07-29T04:32:58;99936.15;;;26.71;34.81
69239;BME280;56349;51.816;-0.026;2023-07-29T04:35:25;99934.09;;;26.64;34.87
69239;BME280;56349;51.816;-0.026;2023-07-29T04:37:51;99927.91;;;26.59;34.91
69239;BME280;56349;51.816;-0.026;2023-07-29T04:40:17;99925.50;;;26.57;34.92
69239;BME280;56349;51.816;-0.026;2023-07-29T04:42:43;99922.28;;;26.51;34.95
69239;BME280;56349;51.816;-0.026;2023-07-29T04:45:09;99924.98;;;26.44;35.05
69239;BME280;56349;51.816;-0.026;2023-07-29T04:47:34;99928.01;;;26.39;35.06
69239;BME280;56349;51.816;-0.026;2023-07-29T04:50:00;99921.91;;;26.38;35.07
69239;BME280;56349;51.816;-0.026;2023-07-29T04:52:26;99922.42;;;26.35;35.05
69239;BME280;56349;51.816;-0.026;2023-07-29T04:54:52;99912.65;;;26.31;35.09
69239;BME280;56349;51.816;-0.026;2023-07-29T04:57:18;99912.90;;;26.26;35.18
69239;BME280;56349;51.816;-0.026;2023-07-29T04:59:45;99913.67;;;26.25;35.18
69239;BME280;56349;51.816;-0.026;2023-07-29T05:02:10;99914.32;;;26.23;35.17
69239;BME280;56349;51.816;-0.026;2023-07-29T05:04:36;99917.38;;;26.20;35.22
69239;BME280;56349;51.816;-0.026;2023-07-29T05:07:01;99920.03;;;26.17;35.23
69239;BME280;56349;51.816;-0.026;2023-07-29T05:09:27;99924.53;;;26.16;35.26
69239;BME280;56349;51.816;-0.026;2023-07-29T05:11:53;99923.04;;;26.34;35.29
69239;BME280;56349;51.816;-0.026;2023-07-29T05:14:19;99923.48;;;26.34;35.28
69239;BME280;56349;51.816;-0.026;2023-07-29T05:16:45;99925.97;;;26.33;35.29
69239;BME280;56349;51.816;-0.026;2023-07-29T05:19:11;99929.55;;;26.57;35.32
69239;BME280;56349;51.816;-0.026;2023-07-29T05:21:37;99927.44;;;26.28;35.36
69239;BME280;56349;51.816;-0.026;2023-07-29T05:24:02;99932.06;;;26.04;35.36
69239;BME280;56349;51.816;-0.026;2023-07-29T05:26:27;99925.63;;;26.03;35.35
69239;BME280;56349;51.816;-0.026;2023-07-29T05:28:54;99926.74;;;26.21;35.38
69239;BME280;56349;51.816;-0.026;2023-07-29T05:31:20;99924.85;;;25.97;35.40
69239;BME280;56349;51.816;-0.026;2023-07-29T05:33:45;99923.46;;;25.94;35.44
69239;BME280;56349;51.816;-0.026;2023-07-29T05:36:11;99919.58;;;26.14;35.45
69239;BME280;56349;51.816;-0.026;2023-07-29T05:38:36;99919.16;;;25.91;35.48
69239;BME280;56349;51.816;-0.026;2023-07-29T05:41:02;99922.86;;;26.13;35.52
69239;BME280;56349;51.816;-0.026;2023-07-29T05:43:28;99918.82;;;26.11;35.55
69239;BME280;56349;51.816;-0.026;2023-07-29T05:45:54;99920.86;;;25.89;35.56
69239;BME280;56349;51.816;-0.026;2023-07-29T05:48:20;99922.76;;;25.88;35.62
69239;BME280;56349;51.816;-0.026;2023-07-29T05:50:46;99927.03;;;26.10;35.62
69239;BME280;56349;51.816;-0.026;2023-07-29T05:53:13;99928.27;;;26.09;35.59
69239;BME280;56349;51.816;-0.026;2023-07-29T05:55:38;99929.61;;;26.33;35.60
69239;BME280;56349;51.816;-0.026;2023-07-29T05:58:05;99927.61;;;26.06;35.60
69239;BME280;56349;51.816;-0.026;2023-07-29T06:00:30;99920.86;;;26.30;35.63
69239;BME280;56349;51.816;-0.026;2023-07-29T06:02:55;99919.50;;;26.03;35.64
69239;BME280;56349;51.816;-0.026;2023-07-29T06:05:21;99920.12;;;25.78;35.71
69239;BME280;56349;51.816;-0.026;2023-07-29T06:07:47;99926.99;;;25.98;35.74
69239;BME280;56349;51.816;-0.026;2023-07-29T06:10:14;99931.93;;;25.99;35.75
69239;BME280;56349;51.816;-0.026;2023-07-29T06:12:39;99942.84;;;26.25;35.76
69239;BME280;56349;51.816;-0.026;2023-07-29T06:15:06;99946.36;;;25.97;35.79
69239;BME280;56349;51.816;-0.026;2023-07-29T06:17:31;99947.88;;;25.96;35.79
69239;BME280;56349;51.816;-0.026;2023-07-29T06:19:57;99945.36;;;26.22;35.81
69239;BME280;56349;51.816;-0.026;2023-07-29T06:22:23;99949.71;;;25.95;35.79
69239;BME280;56349;51.816;-0.026;2023-07-29T06:24:49;99946.96;;;25.72;35.81
69239;BME280;56349;51.816;-0.026;2023-07-29T06:27:15;99946.00;;;25.94;35.84
69239;BME280;56349;51.816;-0.026;2023-07-29T06:29:41;99948.00;;;26.21;35.85
69239;BME280;56349;51.816;-0.026;2023-07-29T06:32:07;99943.79;;;25.92;35.87
69239;BME280;56349;51.816;-0.026;2023-07-29T06:34:32;99945.39;;;25.92;35.88
69239;BME280;56349;51.816;-0.026;2023-07-29T06:36:58;99944.22;;;25.91;35.91
69239;BME280;56349;51.816;-0.026;2023-07-29T06:39:24;99950.17;;;25.90;36.00
69239;BME280;56349;51.816;-0.026;2023-07-29T06:41:50;99956.91;;;25.91;36.01
69239;BME280;56349;51.816;-0.026;2023-07-29T06:44:15;99956.67;;;25.91;36.01
69239;BME280;56349;51.816;-0.026;2023-07-29T06:46:41;99957.22;;;25.93;36.01
69239;BME280;56349;51.816;-0.026;2023-07-29T06:49:07;99957.33;;;25.95;36.06
69239;BME280;56349;51.816;-0.026;2023-07-29T06:51:33;99957.71;;;25.96;36.26
69239;BME280;56349;51.816;-0.026;2023-07-29T06:54:00;99957.73;;;26.25;36.26
69239;BME280;56349;51.816;-0.026;2023-07-29T06:56:25;99958.51;;;25.99;36.30
69239;BME280;56349;51.816;-0.026;2023-07-29T06:58:51;99961.23;;;26.02;36.29
69239;BME280;56349;51.816;-0.026;2023-07-29T07:01:17;99964.40;;;26.03;36.19
69239;BME280;56349;51.816;-0.026;2023-07-29T07:03:43;99960.74;;;26.04;36.10
69239;BME280;56349;51.816;-0.026;2023-07-29T07:06:09;99960.36;;;25.81;36.02
69239;BME280;56349;51.816;-0.026;2023-07-29T07:08:34;99949.64;;;26.31;35.99
69239;BME280;56349;51.816;-0.026;2023-07-29T07:11:00;99947.72;;;26.05;35.93
69239;BME280;56349;51.816;-0.026;2023-07-29T07:13:26;99951.36;;;26.05;35.87
69239;BME280;56349;51.816;-0.026;2023-07-29T07:15:54;99951.08;;;25.81;35.83
69239;BME280;56349;51.816;-0.026;2023-07-29T07:18:18;99949.15;;;26.04;35.78
69239;BME280;56349;51.816;-0.026;2023-07-29T07:20:48;99951.85;;;26.05;35.74
69239;BME280;56349;51.816;-0.026;2023-07-29T07:23:09;99956.28;;;26.05;35.72
69239;BME280;56349;51.816;-0.026;2023-07-29T07:25:35;99955.13;;;26.04;35.69
69239;BME280;56349;51.816;-0.026;2023-07-29T07:28:00;99956.30;;;26.30;35.67
69239;BME280;56349;51.816;-0.026;2023-07-29T07:30:26;99954.06;;;25.82;35.64
69239;BME280;56349;51.816;-0.026;2023-07-29T07:32:52;99957.25;;;26.04;35.60
69239;BME280;56349;51.816;-0.026;2023-07-29T07:35:19;99955.96;;;25.81;35.55
69239;BME280;56349;51.816;-0.026;2023-07-29T07:37:45;99959.66;;;26.02;35.53
69239;BME280;56349;51.816;-0.026;2023-07-29T07:40:11;99959.57;;;25.80;35.60
69239;BME280;56349;51.816;-0.026;2023-07-29T07:42:36;99962.55;;;25.79;35.64
69239;BME280;56349;51.816;-0.026;2023-07-29T07:45:01;99959.29;;;25.80;35.58
69239;BME280;56349;51.816;-0.026;2023-07-29T07:47:26;99961.75;;;26.02;35.52
69239;BME280;56349;51.816;-0.026;2023-07-29T07:49:51;99958.66;;;26.05;35.56
69239;BME280;56349;51.816;-0.026;2023-07-29T07:52:17;99956.35;;;26.31;35.51
69239;BME280;56349;51.816;-0.026;2023-07-29T07:54:42;99955.49;;;26.03;35.52
69239;BME280;56349;51.816;-0.026;2023-07-29T07:57:08;99952.15;;;26.02;35.46
69239;BME280;56349;51.816;-0.026;2023-07-29T07:59:34;99951.61;;;26.02;35.43
69239;BME280;56349;51.816;-0.026;2023-07-29T08:02:00;99952.76;;;25.80;35.45
69239;BME280;56349;51.816;-0.026;2023-07-29T08:04:26;99948.07;;;26.01;35.42
69239;BME280;56349;51.816;-0.026;2023-07-29T08:06:53;99946.87;;;26.28;35.44
69239;BME280;56349;51.816;-0.026;2023-07-29T08:09:19;99945.16;;;26.03;35.49
69239;BME280;56349;51.816;-0.026;2023-07-29T08:11:45;99950.58;;;26.05;35.41
69239;BME280;56349;51.816;-0.026;2023-07-29T08:14:11;99945.50;;;26.06;35.40
69239;BME280;56349;51.816;-0.026;2023-07-29T08:16:36;99942.14;;;26.07;35.40
69239;BME280;56349;51.816;-0.026;2023-07-29T08:19:02;99940.33;;;26.34;35.44
69239;BME280;56349;51.816;-0.026;2023-07-29T08:21:28;99938.20;;;26.35;35.36
69239;BME280;56349;51.816;-0.026;2023-07-29T08:23:54;99942.82;;;26.05;35.35
69239;BME280;56349;51.816;-0.026;2023-07-29T08:26:20;99940.37;;;26.04;35.36
69239;BME280;56349;51.816;-0.026;2023-07-29T08:28:46;99940.02;;;26.04;35.31
69239;BME280;56349;51.816;-0.026;2023-07-29T08:31:12;99933.50;;;26.04;35.31
69239;BME280;56349;51.816;-0.026;2023-07-29T08:33:38;99932.44;;;26.02;35.31
69239;BME280;56349;51.816;-0.026;2023-07-29T08:36:04;99933.73;;;26.02;35.34
69239;BME280;56349;51.816;-0.026;2023-07-29T08:38:29;99934.49;;;26.02;35.38
69239;BME280;56349;51.816;-0.026;2023-07-29T08:41:04;99936.95;;;26.02;35.44
69239;BME280;56349;51.816;-0.026;2023-07-29T08:43:28;99938.47;;;26.03;35.49
69239;BME280;56349;51.816;-0.026;2023-07-29T08:45:47;99943.64;;;26.30;35.49
69239;BME280;56349;51.816;-0.026;2023-07-29T08:48:16;99943.41;;;26.05;35.46
69239;BME280;56349;51.816;-0.026;2023-07-29T08:50:39;99941.27;;;25.84;35.44
69239;BME280;56349;51.816;-0.026;2023-07-29T08:53:04;99942.66;;;26.35;35.43
69239;BME280;56349;51.816;-0.026;2023-07-29T08:55:30;99937.36;;;26.36;35.42
69239;BME280;56349;51.816;-0.026;2023-07-29T08:57:55;99936.91;;;25.88;35.41
69239;BME280;56349;51.816;-0.026;2023-07-29T09:00:21;99934.26;;;26.12;35.42
69239;BME280;56349;51.816;-0.026;2023-07-29T09:02:46;99931.83;;;26.39;35.47
69239;BME280;56349;51.816;-0.026;2023-07-29T09:05:17;99933.38;;;26.14;35.52
69239;BME280;56349;51.816;-0.026;2023-07-29T09:07:38;99931.86;;;26.17;35.43
69239;BME280;56349;51.816;-0.026;2023-07-29T09:10:04;99930.81;;;26.21;35.41
69239;BME280;56349;51.816;-0.026;2023-07-29T09:12:28;99932.28;;;26.01;35.39
69239;BME280;56349;51.816;-0.026;2023-07-29T09:14:54;99936.72;;;26.24;35.35
69239;BME280;56349;51.816;-0.026;2023-07-29T09:17:21;99933.18;;;26.01;35.36
69239;BME280;56349;51.816;-0.026;2023-07-29T09:19:48;99938.57;;;26.02;35.39
69239;BME280;56349;51.816;-0.026;2023-07-29T09:22:17;99938.10;;;26.24;35.38
69239;BME280;56349;51.816;-0.026;2023-07-29T09:24:37;99936.44;;;26.23;35.40
69239;BME280;56349;51.816;-0.026;2023-07-29T09:27:04;99934.63;;;26.24;35.40
69239;BME280;56349;51.816;-0.026;2023-07-29T09:29:29;99928.84;;;26.01;35.39
69239;BME280;56349;51.816;-0.026;2023-07-29T09:34:20;99938.03;;;26.50;35.34
69239;BME280;56349;51.816;-0.026;2023-07-29T09:36:45;99938.46;;;26.23;35.34
69239;BME280;56349;51.816;-0.026;2023-07-29T09:39:11;99935.81;;;26.23;35.39
69239;BME280;56349;51.816;-0.026;2023-07-29T09:41:35;99936.21;;;26.52;35.44
69239;BME280;56349;51.816;-0.026;2023-07-29T09:44:19;99936.79;;;26.26;35.50
69239;BME280;56349;51.816;-0.026;2023-07-29T09:46:33;99938.46;;;26.30;35.52
69239;BME280;56349;51.816;-0.026;2023-07-29T09:48:53;99932.78;;;26.36;35.50
69239;BME280;56349;51.816;-0.026;2023-07-29T09:51:17;99932.55;;;26.16;35.46
69239;BME280;56349;51.816;-0.026;2023-07-29T09:53:45;99933.32;;;26.35;35.39
69239;BME280;56349;51.816;-0.026;2023-07-29T09:56:09;99933.08;;;26.33;35.39
69239;BME280;56349;51.816;-0.026;2023-07-29T09:58:34;99929.56;;;26.31;35.35
69239;BME280;56349;51.816;-0.026;2023-07-29T10:00:59;99935.84;;;26.57;35.34
69239;BME280;56349;51.816;-0.026;2023-07-29T10:03:26;99933.49;;;26.31;35.34
69239;BME280;56349;51.816;-0.026;2023-07-29T10:05:51;99934.88;;;26.31;35.34
69239;BME280;56349;51.816;-0.026;2023-07-29T10:08:16;99930.70;;;26.06;35.29
69239;BME280;56349;51.816;-0.026;2023-07-29T10:10:42;99930.51;;;26.07;35.21
69239;BME280;56349;51.816;-0.026;2023-07-29T10:13:07;99928.79;;;26.26;35.24
69239;BME280;56349;51.816;-0.026;2023-07-29T10:15:34;99929.64;;;26.50;35.24
69239;BME280;56349;51.816;-0.026;2023-07-29T10:17:59;99927.91;;;26.26;35.31
69239;BME280;56349;51.816;-0.026;2023-07-29T10:20:25;99927.37;;;26.54;35.34
69239;BME280;56349;51.816;-0.026;2023-07-29T10:22:51;99922.01;;;26.01;34.69
69239;BME280;56349;51.816;-0.026;2023-07-29T10:25:17;99923.83;;;26.14;34.00
69239;BME280;56349;51.816;-0.026;2023-07-29T10:27:43;99920.78;;;26.12;33.81
69239;BME280;56349;51.816;-0.026;2023-07-29T10:30:08;99923.96;;;26.12;33.71
69239;BME280;56349;51.816;-0.026;2023-07-29T10:32:32;99918.86;;;25.92;33.55
69239;BME280;56349;51.816;-0.026;2023-07-29T10:34:57;99927.59;;;25.96;33.37
69239;BME280;56349;51.816;-0.026;2023-07-29T10:37:23;99926.43;;;25.95;32.93
69239;BME280;56349;51.816;-0.026;2023-07-29T10:39:55;99925.23;;;26.22;32.80
69239;BME280;56349;51.816;-0.026;2023-07-29T10:42:14;99924.49;;;26.28;32.67
69239;BME280;56349;51.816;-0.026;2023-07-29T10:44:46;99925.81;;;26.33;32.29
69239;BME280;56349;51.816;-0.026;2023-07-29T10:47:11;99930.19;;;26.32;32.09
69239;BME280;56349;51.816;-0.026;2023-07-29T10:49:35;99930.06;;;26.12;31.82
69239;BME280;56349;51.816;-0.026;2023-07-29T10:51:56;99936.99;;;26.11;31.52
69239;BME280;56349;51.816;-0.026;2023-07-29T10:54:23;99938.42;;;26.30;31.38
69239;BME280;56349;51.816;-0.026;2023-07-29T10:56:48;99946.69;;;26.23;31.33
69239;BME280;56349;51.816;-0.026;2023-07-29T11:01:40;99974.25;;;26.20;31.94
69239;BME280;56349;51.816;-0.026;2023-07-29T11:06:30;99979.32;;;26.24;32.30
69239;BME280;56349;51.816;-0.026;2023-07-29T11:08:56;99970.52;;;26.07;32.42
69239;BME280;56349;51.816;-0.026;2023-07-29T11:11:22;99973.13;;;26.10;32.51
69239;BME280;56349;51.816;-0.026;2023-07-29T11:13:47;99970.82;;;26.35;32.59
69239;BME280;56349;51.816;-0.026;2023-07-29T11:16:16;99966.03;;;26.13;32.77
69239;BME280;56349;51.816;-0.026;2023-07-29T11:18:39;99961.74;;;26.15;33.00
69239;BME280;56349;51.816;-0.026;2023-07-29T11:21:04;99963.03;;;26.28;33.22
69239;BME280;56349;51.816;-0.026;2023-07-29T11:23:32;99966.31;;;26.26;33.23
69239;BME280;56349;51.816;-0.026;2023-07-29T11:25:56;99962.19;;;26.74;33.19
69239;BME280;56349;51.816;-0.026;2023-07-29T11:28:21;99956.00;;;27.06;32.82
69239;BME280;56349;51.816;-0.026;2023-07-29T11:30:47;99952.84;;;27.32;32.26
69239;BME280;56349;51.816;-0.026;2023-07-29T11:33:13;99955.36;;;27.16;31.98
69239;BME280;56349;51.816;-0.026;2023-07-29T11:35:39;99949.38;;;27.48;31.65
69239;BME280;56349;51.816;-0.026;2023-07-29T11:38:04;99958.37;;;27.55;31.28
69239;BME280;56349;51.816;-0.026;2023-07-29T11:40:30;99964.57;;;27.86;30.54
69239;BME280;56349;51.816;-0.026;2023-07-29T11:42:56;99958.73;;;27.87;30.01
69239;BME280;56349;51.816;-0.026;2023-07-29T11:45:23;99972.42;;;28.23;29.60
69239;BME280;56349;51.816;-0.026;2023-07-29T11:47:48;99960.05;;;28.31;29.46
69239;BME280;56349;51.816;-0.026;2023-07-29T11:50:14;99954.40;;;28.85;29.27
69239;BME280;56349;51.816;-0.026;2023-07-29T11:52:41;99945.76;;;28.69;29.06
69239;BME280;56349;51.816;-0.026;2023-07-29T11:55:06;99942.65;;;29.22;28.87
69239;BME280;56349;51.816;-0.026;2023-07-29T11:57:31;99946.40;;;28.99;28.65
69239;BME280;56349;51.816;-0.026;2023-07-29T11:59:57;99953.96;;;29.53;28.50
69239;BME280;56349;51.816;-0.026;2023-07-29T12:02:23;99947.59;;;29.55;28.30
69239;BME280;56349;51.816;-0.026;2023-07-29T12:04:48;99948.16;;;29.83;28.01
69239;BME280;56349;51.816;-0.026;2023-07-29T12:07:14;99949.64;;;29.96;27.89
69239;BME280;56349;51.816;-0.026;2023-07-29T12:09:40;99944.82;;;30.07;27.75
69239;BME280;56349;51.816;-0.026;2023-07-29T12:12:06;99951.76;;;30.15;27.58
69239;BME280;56349;51.816;-0.026;2023-07-29T12:14:30;99941.50;;;30.17;27.42
69239;BME280;56349;51.816;-0.026;2023-07-29T12:16:55;99939.49;;;30.08;27.36
69239;BME280;56349;51.816;-0.026;2023-07-29T12:19:21;99942.92;;;29.97;27.24
69239;BME280;56349;51.816;-0.026;2023-07-29T12:21:46;99944.60;;;29.80;27.31
69239;BME280;56349;51.816;-0.026;2023-07-29T12:24:12;99945.94;;;29.91;27.02
69239;BME280;56349;51.816;-0.026;2023-07-29T12:26:38;99945.01;;;29.38;26.47
69239;BME280;56349;51.816;-0.026;2023-07-29T12:29:14;99943.54;;;29.40;26.39
69239;BME280;56349;51.816;-0.026;2023-07-29T12:31:31;99950.23;;;29.17;26.31
69239;BME280;56349;51.816;-0.026;2023-07-29T12:33:56;99954.33;;;29.15;26.39
69239;BME280;56349;51.816;-0.026;2023-07-29T12:36:21;99960.09;;;29.00;26.72
69239;BME280;56349;51.816;-0.026;2023-07-29T12:38:47;99960.86;;;28.85;26.97
69239;BME280;56349;51.816;-0.026;2023-07-29T12:41:13;99966.11;;;28.97;27.11
69239;BME280;56349;51.816;-0.026;2023-07-29T12:43:43;99968.76;;;28.84;27.30
69239;BME280;56349;51.816;-0.026;2023-07-29T12:46:03;99966.03;;;28.72;27.47
69239;BME280;56349;51.816;-0.026;2023-07-29T12:48:29;99969.18;;;28.56;27.73